createdAt,value
2019-04-07T00:01:05.856Z,13.85
2019-04-07T00:03:34.858Z,11.15
2019-04-07T00:06:04.168Z,13.45
2019-04-07T00:08:36.582Z,10.95
2019-04-07T00:11:05.743Z,12.03
2019-04-07T00:13:34.648Z,10.40
2019-04-07T00:16:03.665Z,10.85
2019-04-07T00:18:40.258Z,10.13
2019-04-07T00:21:09.240Z,10.60
2019-04-07T00:23:38.963Z,9.98
2019-04-07T00:26:08.450Z,9.28
2019-04-07T00:28:40.793Z,10.30
2019-04-07T00:31:09.904Z,9.18
2019-04-07T00:33:38.929Z,10.63
2019-04-07T00:36:08.263Z,9.38
2019-04-07T00:38:37.339Z,9.28
2019-04-07T00:41:06.837Z,9.25
2019-04-07T00:43:36.365Z,8.65
2019-04-07T00:46:06.110Z,9.85
2019-04-07T00:48:35.266Z,9.63
2019-04-07T00:51:05.128Z,11.18
2019-04-07T00:53:36.701Z,10.65
2019-04-07T00:56:05.362Z,10.18
2019-04-07T00:58:34.385Z,10.13
2019-04-07T01:01:06.346Z,11.60
2019-04-07T01:03:35.732Z,8.60
2019-04-07T01:06:04.960Z,10.10
2019-04-07T01:08:34.000Z,8.58
2019-04-07T01:11:03.513Z,9.95
2019-04-07T01:13:32.616Z,10.13
2019-04-07T01:16:02.018Z,10.25
2019-04-07T01:18:33.921Z,9.80
2019-04-07T01:21:03.729Z,10.88
2019-04-07T01:23:33.609Z,10.98
2019-04-07T01:26:03.214Z,8.55
2019-04-07T01:28:32.845Z,9.10
2019-04-07T01:31:02.381Z,9.45
2019-04-07T01:33:31.577Z,9.63
2019-04-07T01:36:00.828Z,10.88
2019-04-07T01:38:30.683Z,10.82
2019-04-07T01:41:04.813Z,10.88
2019-04-07T01:43:39.334Z,11.95
2019-04-07T01:46:13.114Z,10.78
2019-04-07T01:48:58.994Z,9.40
2019-04-07T01:51:45.410Z,10.50
2019-04-07T01:54:18.626Z,11.73
2019-04-07T01:57:02.332Z,12.47
2019-04-07T01:59:45.944Z,11.70
2019-04-07T02:02:20.105Z,10.93
2019-04-07T02:05:00.157Z,12.20
2019-04-07T02:07:40.111Z,11.25
2019-04-07T02:10:20.848Z,12.18
2019-04-07T02:12:52.006Z,12.78
2019-04-07T02:15:39.515Z,12.68
2019-04-07T02:18:26.513Z,11.68
2019-04-07T02:21:00.551Z,10.82
2019-04-07T02:23:48.164Z,11.88
2019-04-07T02:26:22.382Z,11.85
2019-04-07T02:29:09.285Z,11.88
2019-04-07T02:31:50.021Z,12.28
2019-04-07T02:34:20.886Z,11.15
2019-04-07T02:36:51.997Z,12.53
2019-04-07T02:39:34.790Z,11.28
2019-04-07T02:42:17.198Z,13.78
2019-04-07T02:44:51.241Z,13.08
2019-04-07T02:47:24.928Z,11.48
2019-04-07T02:50:14.158Z,11.57
2019-04-07T02:52:49.152Z,12.23
2019-04-07T02:55:37.427Z,11.68
2019-04-07T02:58:08.728Z,11.05
2019-04-07T03:00:43.193Z,11.50
2019-04-07T03:03:29.395Z,14.83
2019-04-07T03:06:06.932Z,11.20
2019-04-07T03:08:54.183Z,12.50
2019-04-07T03:11:35.228Z,11.85
2019-04-07T03:14:10.886Z,10.88
2019-04-07T03:16:58.300Z,10.40
2019-04-07T03:19:47.346Z,11.45
2019-04-07T03:22:34.600Z,12.78
2019-04-07T03:25:20.686Z,11.78
2019-04-07T03:27:55.883Z,10.28
2019-04-07T03:30:33.730Z,13.68
2019-04-07T03:33:22.624Z,12.15
2019-04-07T03:35:55.912Z,10.00
2019-04-07T03:38:28.530Z,10.35
2019-04-07T03:41:09.766Z,11.78
2019-04-07T03:43:46.627Z,11.70
2019-04-07T03:46:32.869Z,11.80
2019-04-07T03:49:16.999Z,12.25
2019-04-07T03:52:04.680Z,10.93
2019-04-07T03:54:36.657Z,9.25
2019-04-07T03:57:08.861Z,12.47
2019-04-07T03:59:57.680Z,10.85
2019-04-07T04:02:46.995Z,11.50
2019-04-07T04:05:17.618Z,11.93
2019-04-07T04:07:57.330Z,8.95
2019-04-07T04:10:28.935Z,10.85
2019-04-07T04:13:15.187Z,9.75
2019-04-07T04:15:48.418Z,9.75
2019-04-07T04:18:18.418Z,10.75
2019-04-07T04:20:47.449Z,9.53
2019-04-07T04:23:17.809Z,9.93
2019-04-07T04:25:47.202Z,10.18
2019-04-07T04:28:16.430Z,8.15
2019-04-07T04:30:45.802Z,10.80
2019-04-07T04:33:15.855Z,9.03
2019-04-07T04:35:45.987Z,9.23
2019-04-07T04:38:15.812Z,7.70
2019-04-07T04:40:46.571Z,7.97
2019-04-07T04:43:15.778Z,8.50
2019-04-07T04:45:46.038Z,8.10
2019-04-07T04:48:15.506Z,7.80
2019-04-07T04:50:45.785Z,10.60
2019-04-07T04:53:15.108Z,8.05
2019-04-07T04:55:44.217Z,9.15
2019-04-07T04:58:13.440Z,9.93
2019-04-07T05:00:42.828Z,9.75
2019-04-07T05:03:12.660Z,8.30
2019-04-07T05:05:42.129Z,8.08
2019-04-07T05:08:11.477Z,9.35
2019-04-07T05:10:40.817Z,8.90
2019-04-07T05:13:09.862Z,9.40
2019-04-07T05:15:39.905Z,8.75
2019-04-07T05:18:09.781Z,8.88
2019-04-07T05:20:38.810Z,9.10
2019-04-07T05:23:07.883Z,9.55
2019-04-07T05:25:37.961Z,9.65
2019-04-07T05:28:07.373Z,10.48
2019-04-07T05:30:36.596Z,11.28
2019-04-07T05:33:05.722Z,8.30
2019-04-07T05:35:35.194Z,7.37
2019-04-07T05:38:06.601Z,9.30
2019-04-07T05:40:35.532Z,8.80
2019-04-07T05:43:07.118Z,9.73
2019-04-07T05:45:37.554Z,8.13
2019-04-07T05:48:08.185Z,7.12
2019-04-07T05:50:37.626Z,8.43
2019-04-07T05:53:11.005Z,7.72
2019-04-07T05:55:39.802Z,7.75
2019-04-07T05:58:08.859Z,7.55
2019-04-07T06:00:39.163Z,6.12
2019-04-07T06:03:09.305Z,6.17
2019-04-07T06:05:38.562Z,6.55
2019-04-07T06:08:22.445Z,7.78
2019-04-07T06:10:38.771Z,7.42
2019-04-07T06:13:11.186Z,6.75
2019-04-07T06:15:39.222Z,5.65
2019-04-07T06:18:09.291Z,7.75
2019-04-07T06:20:39.148Z,6.97
2019-04-07T06:23:09.130Z,8.33
2019-04-07T06:25:41.743Z,7.28
2019-04-07T06:28:08.888Z,7.28
2019-04-07T06:30:38.076Z,7.03
2019-04-07T06:33:07.447Z,6.67
2019-04-07T06:35:36.712Z,5.45
2019-04-07T06:38:07.839Z,5.53
2019-04-07T06:40:37.266Z,6.08
2019-04-07T06:43:06.653Z,6.03
2019-04-07T06:45:38.632Z,8.05
2019-04-07T06:48:10.239Z,6.25
2019-04-07T06:50:49.363Z,6.87
2019-04-07T06:53:18.581Z,7.75
2019-04-07T06:55:51.341Z,6.03
2019-04-07T06:58:38.445Z,5.87
2019-04-07T07:01:15.572Z,5.83
2019-04-07T07:04:08.587Z,7.50
2019-04-07T07:06:48.135Z,7.47
2019-04-07T07:09:27.240Z,7.08
2019-04-07T07:12:22.527Z,6.45
2019-04-07T07:15:00.885Z,7.35
2019-04-07T07:17:35.653Z,5.47
2019-04-07T07:20:14.451Z,5.28
2019-04-07T07:22:49.461Z,5.92
2019-04-07T07:25:19.049Z,6.00
2019-04-07T07:27:48.749Z,5.75
2019-04-07T07:30:19.563Z,6.83
2019-04-07T07:32:49.744Z,6.22
2019-04-07T07:35:19.066Z,6.30
2019-04-07T07:37:48.429Z,8.08
2019-04-07T07:40:18.358Z,6.42
2019-04-07T07:42:50.674Z,5.65
2019-04-07T07:45:18.826Z,6.85
2019-04-07T07:47:51.984Z,5.60
2019-04-07T07:50:19.123Z,7.12
2019-04-07T07:52:51.317Z,6.03
2019-04-07T07:55:19.721Z,6.40
2019-04-07T07:57:56.732Z,5.10
2019-04-07T08:00:22.637Z,6.20
2019-04-07T08:02:53.471Z,5.75
2019-04-07T08:05:22.759Z,5.33
2019-04-07T08:07:52.017Z,6.28
2019-04-07T08:10:23.348Z,7.85
2019-04-07T08:12:53.221Z,4.83
2019-04-07T08:15:25.428Z,5.83
2019-04-07T08:17:53.462Z,5.83
2019-04-07T08:20:23.102Z,4.92
2019-04-07T08:22:52.458Z,5.58
2019-04-07T08:25:23.688Z,5.50
2019-04-07T08:27:53.088Z,5.78
2019-04-07T08:30:22.936Z,5.42
2019-04-07T08:32:57.643Z,5.65
2019-04-07T08:35:23.287Z,5.30
2019-04-07T08:37:53.541Z,6.22
2019-04-07T08:40:22.753Z,5.62
2019-04-07T08:42:52.154Z,6.53
2019-04-07T08:45:32.693Z,5.47
2019-04-07T08:48:04.144Z,5.87
2019-04-07T08:50:34.257Z,6.40
2019-04-07T08:53:05.945Z,6.80
2019-04-07T08:55:35.558Z,6.20
2019-04-07T08:58:05.876Z,6.22
2019-04-07T09:00:38.322Z,5.03
2019-04-07T09:03:12.324Z,5.75
2019-04-07T09:05:39.012Z,7.12
2019-04-07T09:08:09.049Z,7.22
2019-04-07T09:10:49.231Z,6.03
2019-04-07T09:13:16.376Z,6.25
2019-04-07T09:15:50.058Z,6.58
2019-04-07T09:18:26.873Z,5.08
2019-04-07T09:21:07.742Z,4.17
2019-04-07T09:23:38.810Z,5.72
2019-04-07T09:26:12.665Z,4.55
2019-04-07T09:28:44.264Z,5.30
2019-04-07T09:31:18.613Z,4.80
2019-04-07T09:33:58.034Z,5.47
2019-04-07T09:36:35.251Z,5.15
2019-04-07T09:39:23.589Z,6.05
2019-04-07T09:42:10.811Z,6.97
2019-04-07T09:44:45.258Z,5.22
2019-04-07T09:47:31.823Z,6.30
2019-04-07T09:50:02.858Z,7.58
2019-04-07T09:52:45.698Z,4.95
2019-04-07T09:55:19.102Z,5.78
2019-04-07T09:58:09.340Z,6.60
2019-04-07T10:00:41.045Z,4.90
2019-04-07T10:03:21.050Z,7.28
2019-04-07T10:05:54.402Z,5.72
2019-04-07T10:08:37.803Z,6.75
2019-04-07T10:11:09.627Z,6.00
2019-04-07T10:13:53.058Z,6.35
2019-04-07T10:16:31.932Z,5.70
2019-04-07T10:19:11.528Z,5.47
2019-04-07T10:22:00.596Z,5.08
2019-04-07T10:24:48.304Z,8.30
2019-04-07T10:27:28.580Z,4.47
2019-04-07T10:30:15.684Z,6.05
2019-04-07T10:32:50.098Z,5.47
2019-04-07T10:35:39.564Z,5.22
2019-04-07T10:38:22.609Z,5.33
2019-04-07T10:40:53.196Z,5.10
2019-04-07T10:43:24.036Z,5.75
2019-04-07T10:45:57.983Z,5.72
2019-04-07T10:48:35.616Z,4.95
2019-04-07T10:51:15.353Z,6.00
2019-04-07T10:53:51.672Z,4.83
2019-04-07T10:56:38.945Z,5.05
2019-04-07T10:59:22.057Z,5.53
2019-04-07T11:01:58.745Z,4.58
2019-04-07T11:04:32.659Z,6.45
2019-04-07T11:07:07.025Z,6.35
2019-04-07T11:09:53.127Z,8.43
2019-04-07T11:12:36.687Z,4.90
2019-04-07T11:15:25.931Z,4.80
2019-04-07T11:18:13.675Z,5.08
2019-04-07T11:21:05.055Z,6.80
2019-04-07T11:23:36.121Z,4.47
2019-04-07T11:26:23.602Z,5.35
2019-04-07T11:28:54.193Z,4.30
2019-04-07T11:31:31.034Z,5.10
2019-04-07T11:34:05.432Z,4.05
2019-04-07T11:36:43.157Z,7.28
2019-04-07T11:39:32.711Z,4.95
2019-04-07T11:42:04.779Z,5.70
2019-04-07T11:44:45.504Z,6.40
2019-04-07T11:47:19.700Z,5.55
2019-04-07T11:49:55.109Z,5.95
2019-04-07T11:52:26.376Z,4.33
2019-04-07T11:55:00.905Z,5.87
2019-04-07T11:57:44.661Z,5.60
2019-04-07T12:00:18.333Z,5.50
2019-04-07T12:02:55.688Z,6.42
2019-04-07T12:05:42.578Z,5.72
2019-04-07T12:08:17.336Z,5.25
2019-04-07T12:11:06.237Z,6.15
2019-04-07T12:13:51.041Z,5.15
2019-04-07T12:16:24.785Z,6.15
2019-04-07T12:19:04.403Z,5.37
2019-04-07T12:21:39.304Z,6.20
2019-04-07T12:24:18.932Z,5.35
2019-04-07T12:27:10.843Z,5.80
2019-04-07T12:29:44.560Z,4.80
2019-04-07T12:32:26.010Z,5.40
2019-04-07T12:35:04.149Z,5.33
2019-04-07T12:37:52.105Z,4.33
2019-04-07T12:40:29.019Z,4.15
2019-04-07T12:43:15.688Z,4.78
2019-04-07T12:45:49.349Z,6.37
2019-04-07T12:48:21.227Z,5.67
2019-04-07T12:50:56.275Z,6.62
2019-04-07T12:53:36.221Z,6.00
2019-04-07T12:56:22.155Z,8.43
2019-04-07T12:59:06.883Z,5.50
2019-04-07T13:01:38.200Z,4.67
2019-04-07T13:04:26.605Z,6.12
2019-04-07T13:07:10.105Z,5.53
2019-04-07T13:09:41.853Z,5.22
2019-04-07T13:12:25.945Z,6.65
2019-04-07T13:14:57.182Z,4.85
2019-04-07T13:17:47.295Z,5.50
2019-04-07T13:20:36.544Z,4.22
2019-04-07T13:23:08.049Z,4.47
2019-04-07T13:25:39.641Z,5.12
2019-04-07T13:28:14.163Z,6.08
2019-04-07T13:30:48.838Z,5.42
2019-04-07T13:33:26.483Z,4.62
2019-04-07T13:36:10.642Z,7.33
2019-04-07T13:38:58.789Z,5.53
2019-04-07T13:41:53.316Z,6.12
2019-04-07T13:44:20.665Z,7.87
2019-04-07T13:47:07.248Z,5.45
2019-04-07T13:49:39.576Z,5.80
2019-04-07T13:52:22.198Z,5.22
2019-04-07T13:54:58.980Z,5.08
2019-04-07T13:57:30.578Z,6.30
2019-04-07T14:00:08.018Z,4.65
2019-04-07T14:02:38.957Z,5.28
2019-04-07T14:05:13.737Z,5.37
2019-04-07T14:07:54.486Z,5.80
2019-04-07T14:10:40.465Z,7.05
2019-04-07T14:13:12.676Z,7.20
2019-04-07T14:16:01.459Z,6.00
2019-04-07T14:18:52.361Z,4.90
2019-04-07T14:21:38.493Z,5.87
2019-04-07T14:24:10.147Z,6.83
2019-04-07T14:26:51.562Z,6.05
2019-04-07T14:29:41.691Z,6.05
2019-04-07T14:32:24.978Z,5.90
2019-04-07T14:35:09.309Z,5.42
2019-04-07T14:37:40.795Z,7.15
2019-04-07T14:40:21.399Z,5.85
2019-04-07T14:43:01.060Z,5.70
2019-04-07T14:45:48.838Z,6.87
2019-04-07T14:48:35.864Z,6.35
2019-04-07T14:51:19.645Z,6.00
2019-04-07T14:53:59.970Z,6.40
2019-04-07T14:56:34.177Z,6.10
2019-04-07T14:59:12.856Z,5.83
2019-04-07T15:01:56.052Z,5.92
2019-04-07T15:04:26.865Z,7.33
2019-04-07T15:07:14.134Z,5.70
2019-04-07T15:10:05.046Z,5.83
2019-04-07T15:12:40.167Z,6.05
2019-04-07T15:15:11.588Z,6.97
2019-04-07T15:17:41.265Z,5.53
2019-04-07T15:20:13.710Z,8.05
2019-04-07T15:22:44.875Z,7.55
2019-04-07T15:25:15.109Z,7.35
2019-04-07T15:27:45.638Z,7.35
2019-04-07T15:30:18.143Z,6.80
2019-04-07T15:32:48.374Z,5.42
2019-04-07T15:35:18.536Z,6.62
2019-04-07T15:37:51.943Z,7.80
2019-04-07T15:40:21.488Z,6.92
2019-04-07T15:42:51.269Z,6.00
2019-04-07T15:45:21.900Z,7.60
2019-04-07T15:47:53.693Z,5.05
2019-04-07T15:50:22.668Z,6.75
2019-04-07T15:52:52.040Z,7.67
2019-04-07T15:55:21.735Z,6.78
2019-04-07T15:57:54.880Z,5.37
2019-04-07T16:00:23.759Z,6.58
2019-04-07T16:02:53.650Z,5.72
2019-04-07T16:05:24.338Z,6.97
2019-04-07T16:07:55.427Z,6.83
2019-04-07T16:10:24.937Z,7.30
2019-04-07T16:12:57.750Z,6.15
2019-04-07T16:15:26.142Z,8.05
2019-04-07T16:17:56.712Z,7.33
2019-04-07T16:20:31.633Z,7.35
2019-04-07T16:22:57.509Z,7.17
2019-04-07T16:25:28.198Z,6.75
2019-04-07T16:27:58.652Z,7.85
2019-04-07T16:30:28.546Z,7.37
2019-04-07T16:33:01.907Z,5.45
2019-04-07T16:35:28.495Z,8.03
2019-04-07T16:38:00.004Z,7.87
2019-04-07T16:40:28.344Z,6.92
2019-04-07T16:43:09.504Z,6.22
2019-04-07T16:45:28.330Z,7.92
2019-04-07T16:47:57.417Z,6.62
2019-04-07T16:50:27.403Z,6.20
2019-04-07T16:52:57.560Z,7.55
2019-04-07T16:55:40.138Z,7.30
2019-04-07T16:58:11.707Z,5.85
2019-04-07T17:00:41.876Z,8.15
2019-04-07T17:03:11.876Z,6.08
2019-04-07T17:05:59.315Z,5.00
2019-04-07T17:08:33.845Z,6.22
2019-04-07T17:11:06.411Z,4.90
2019-04-07T17:13:39.973Z,6.67
2019-04-07T17:16:05.885Z,5.78
2019-04-07T17:18:41.120Z,5.28
2019-04-07T17:21:19.075Z,6.83
2019-04-07T17:23:48.488Z,7.08
2019-04-07T17:26:21.707Z,6.00
2019-04-07T17:28:50.274Z,6.78
2019-04-07T17:31:19.417Z,5.60
2019-04-07T17:33:52.253Z,6.90
2019-04-07T17:36:23.959Z,6.78
2019-04-07T17:38:58.352Z,5.95
2019-04-07T17:41:31.416Z,5.80
2019-04-07T17:44:20.201Z,6.05
2019-04-07T17:47:05.402Z,8.35
2019-04-07T17:49:56.657Z,6.90
2019-04-07T17:52:36.008Z,6.70
2019-04-07T17:55:11.222Z,5.70
2019-04-07T17:57:42.611Z,6.92
2019-04-07T18:00:20.432Z,5.78
2019-04-07T18:02:54.821Z,6.22
2019-04-07T18:05:43.199Z,6.58
2019-04-07T18:08:33.991Z,5.70
2019-04-07T18:11:20.296Z,6.53
2019-04-07T18:14:04.153Z,5.85
2019-04-07T18:16:46.569Z,6.72
2019-04-07T18:19:20.794Z,5.50
2019-04-07T18:22:08.168Z,5.78
2019-04-07T18:24:41.644Z,6.12
2019-04-07T18:27:24.129Z,5.20
2019-04-07T18:29:55.098Z,7.92
2019-04-07T18:32:44.164Z,8.95
2019-04-07T18:35:17.880Z,6.35
2019-04-07T18:37:54.441Z,6.67
2019-04-07T18:40:41.249Z,5.70
2019-04-07T18:43:31.149Z,5.62
2019-04-07T18:46:01.977Z,5.60
2019-04-07T18:48:45.758Z,7.40
2019-04-07T18:51:31.548Z,6.40
2019-04-07T18:54:09.843Z,6.72
2019-04-07T18:56:44.016Z,5.60
2019-04-07T18:59:19.208Z,6.15
2019-04-07T19:01:51.053Z,7.85
2019-04-07T19:04:25.961Z,6.10
2019-04-07T19:06:58.200Z,6.35
2019-04-07T19:09:33.173Z,6.50
2019-04-07T19:12:23.074Z,5.67
2019-04-07T19:15:03.956Z,6.00
2019-04-07T19:17:42.121Z,5.78
2019-04-07T19:20:28.455Z,5.58
2019-04-07T19:23:02.857Z,5.87
2019-04-07T19:25:47.759Z,6.00
2019-04-07T19:28:34.119Z,5.15
2019-04-07T19:31:19.466Z,6.85
2019-04-07T19:33:59.821Z,5.78
2019-04-07T19:36:48.071Z,7.35
2019-04-07T19:39:35.144Z,6.37
2019-04-07T19:42:19.728Z,7.65
2019-04-07T19:45:00.411Z,6.83
2019-04-07T19:47:34.497Z,6.15
2019-04-07T19:50:12.196Z,8.53
2019-04-07T19:52:50.689Z,7.45
2019-04-07T19:55:26.760Z,6.47
2019-04-07T19:58:05.755Z,4.50
2019-04-07T20:00:56.516Z,5.97
2019-04-07T20:03:36.972Z,5.85
2019-04-07T20:06:14.859Z,6.35
2019-04-07T20:09:05.045Z,5.20
2019-04-07T20:11:45.921Z,6.03
2019-04-07T20:14:49.275Z,7.33
2019-04-07T20:17:22.442Z,5.40
2019-04-07T20:20:12.362Z,6.65
2019-04-07T20:23:00.015Z,5.47
2019-04-07T20:25:33.346Z,6.35
2019-04-07T20:28:13.304Z,6.42
2019-04-07T20:31:02.968Z,6.80
2019-04-07T20:33:42.833Z,5.83
2019-04-07T20:36:24.171Z,6.12
2019-04-07T20:39:14.977Z,7.55
2019-04-07T20:41:52.516Z,6.12
2019-04-07T20:44:38.649Z,6.62
2019-04-07T20:47:12.241Z,7.83
2019-04-07T20:49:43.587Z,6.70
2019-04-07T20:52:24.017Z,8.08
2019-04-07T20:55:07.155Z,6.05
2019-04-07T20:57:40.651Z,5.60
2019-04-07T21:00:12.290Z,7.75
2019-04-07T21:03:14.503Z,6.47
2019-04-07T21:05:30.973Z,6.30
2019-04-07T21:08:10.371Z,6.12
2019-04-07T21:10:41.600Z,10.68
2019-04-07T21:13:18.280Z,8.15
2019-04-07T21:15:49.809Z,6.45
2019-04-07T21:18:21.937Z,6.95
2019-04-07T21:21:13.974Z,6.90
2019-04-07T21:23:48.114Z,6.12
2019-04-07T21:26:20.916Z,6.35
2019-04-07T21:28:52.517Z,7.30
2019-04-07T21:31:39.519Z,7.70
2019-04-07T21:34:18.161Z,6.10
2019-04-07T21:37:10.709Z,7.42
2019-04-07T21:39:55.809Z,7.20
2019-04-07T21:42:37.089Z,7.40
2019-04-07T21:45:36.611Z,7.92
2019-04-07T21:51:19.452Z,7.87
2019-04-07T21:54:03.007Z,10.68
2019-04-07T21:56:43.162Z,7.00
2019-04-07T21:59:31.440Z,5.95
2019-04-07T22:02:09.118Z,10.53
2019-04-07T22:04:50.401Z,4.87
2019-04-07T22:07:36.067Z,7.42
2019-04-07T22:10:11.587Z,5.87
2019-04-07T22:12:42.328Z,6.03
2019-04-07T22:15:14.079Z,5.92
2019-04-07T22:17:43.692Z,8.95
2019-04-07T22:20:17.946Z,6.55
2019-04-07T22:22:44.584Z,9.15
2019-04-07T22:25:17.352Z,6.37
2019-04-07T22:27:46.857Z,5.03
2019-04-07T22:30:16.905Z,6.30
2019-04-07T22:32:46.872Z,7.03
2019-04-07T22:35:16.919Z,6.15
2019-04-07T22:37:49.716Z,7.40
2019-04-07T22:40:21.403Z,6.78
2019-04-07T22:42:51.177Z,6.25
2019-04-07T22:45:25.255Z,6.33
2019-04-07T22:47:52.607Z,6.10
2019-04-07T22:50:23.337Z,6.12
2019-04-07T22:52:53.263Z,5.97
2019-04-07T22:55:22.832Z,6.50
2019-04-07T22:57:52.049Z,6.50
2019-04-07T23:00:27.498Z,6.85
2019-04-07T23:02:56.984Z,4.67
2019-04-07T23:05:26.298Z,6.15
2019-04-07T23:07:56.405Z,6.42
2019-04-07T23:10:25.914Z,5.83
2019-04-07T23:12:55.368Z,6.55
2019-04-07T23:15:37.438Z,5.78
2019-04-07T23:17:56.082Z,6.55
2019-04-07T23:20:25.226Z,5.90
2019-04-07T23:22:54.593Z,6.05
2019-04-07T23:25:24.051Z,4.90
2019-04-07T23:27:54.242Z,7.12
2019-04-07T23:30:27.821Z,6.25
2019-04-07T23:32:57.776Z,5.37
2019-04-07T23:35:27.217Z,6.78
2019-04-07T23:37:57.336Z,5.87
2019-04-07T23:40:27.990Z,5.60
2019-04-07T23:42:58.457Z,8.10
2019-04-07T23:45:27.761Z,5.60
2019-04-07T23:47:56.945Z,5.65
2019-04-07T23:50:27.236Z,5.62
2019-04-07T23:52:56.881Z,7.97
2019-04-07T23:55:25.897Z,7.12
2019-04-07T23:57:54.961Z,5.70
